sensor_id;sensor_type;location;lat;lon;timestamp;noise_LAeq;noise_LA_min;noise_LA_max;noise_LA01;noise_LA95
72466;Laerm;60471;52.150;4.508;2023-07-22T00:00:08;56.20;39.88;68.35;;
72466;Laerm;60471;52.150;4.508;2023-07-22T00:02:39;56.67;40.62;69.95;;
72466;Laerm;60471;52.150;4.508;2023-07-22T00:05:06;56.92;43.09;68.13;;
72466;Laerm;60471;52.150;4.508;2023-07-22T00:07:33;57.14;44.35;68.59;;
72466;Laerm;60471;52.150;4.508;2023-07-22T00:09:59;56.39;41.14;68.38;;
72466;Laerm;60471;52.150;4.508;2023-07-22T00:12:26;57.36;41.38;68.77;;
72466;Laerm;60471;52.150;4.508;2023-07-22T00:14:53;55.77;39.90;68.32;;
72466;Laerm;60471;52.150;4.508;2023-07-22T00:17:19;55.79;40.23;68.21;;
72466;Laerm;60471;52.150;4.508;2023-07-22T00:19:47;56.09;42.26;68.00;;
72466;Laerm;60471;52.150;4.508;2023-07-22T00:22:16;56.36;41.53;67.79;;
72466;Laerm;60471;52.150;4.508;2023-07-22T00:24:42;55.95;41.47;67.16;;
72466;Laerm;60471;52.150;4.508;2023-07-22T00:27:09;55.84;39.88;67.75;;
72466;Laerm;60471;52.150;4.508;2023-07-22T00:29:35;56.31;41.99;67.58;;
72466;Laerm;60471;52.150;4.508;2023-07-22T00:32:01;55.65;40.36;67.90;;
72466;Laerm;60471;52.150;4.508;2023-07-22T00:34:28;55.66;38.91;67.70;;
72466;Laerm;60471;52.150;4.508;2023-07-22T00:36:54;55.13;39.55;67.47;;
72466;Laerm;60471;52.150;4.508;2023-07-22T00:39:20;55.41;39.46;67.48;;
72466;Laerm;60471;52.150;4.508;2023-07-22T00:41:47;56.28;40.68;67.21;;
72466;Laerm;60471;52.150;4.508;2023-07-22T00:44:13;55.57;39.12;67.75;;
72466;Laerm;60471;52.150;4.508;2023-07-22T00:46:40;55.76;40.69;67.69;;
72466;Laerm;60471;52.150;4.508;2023-07-22T00:49:09;55.27;39.95;67.43;;
72466;Laerm;60471;52.150;4.508;2023-07-22T00:51:35;55.30;41.73;67.49;;
72466;Laerm;60471;52.150;4.508;2023-07-22T00:54:02;56.37;42.56;67.97;;
72466;Laerm;60471;52.150;4.508;2023-07-22T00:56:36;55.70;39.86;68.01;;
72466;Laerm;60471;52.150;4.508;2023-07-22T00:59:02;55.91;39.58;69.18;;
72466;Laerm;60471;52.150;4.508;2023-07-22T01:01:29;55.91;38.72;68.59;;
72466;Laerm;60471;52.150;4.508;2023-07-22T01:03:55;55.70;40.09;67.66;;
72466;Laerm;60471;52.150;4.508;2023-07-22T01:06:23;55.40;40.81;67.38;;
72466;Laerm;60471;52.150;4.508;2023-07-22T01:08:51;56.11;39.92;68.36;;
72466;Laerm;60471;52.150;4.508;2023-07-22T01:11:17;55.97;40.98;67.89;;
72466;Laerm;60471;52.150;4.508;2023-07-22T01:13:43;55.96;40.66;68.11;;
72466;Laerm;60471;52.150;4.508;2023-07-22T01:16:10;55.95;40.34;68.02;;
72466;Laerm;60471;52.150;4.508;2023-07-22T01:18:37;55.89;41.32;67.14;;
72466;Laerm;60471;52.150;4.508;2023-07-22T01:21:06;56.56;41.78;68.54;;
72466;Laerm;60471;52.150;4.508;2023-07-22T01:23:34;55.83;41.56;67.61;;
72466;Laerm;60471;52.150;4.508;2023-07-22T01:26:02;55.95;39.89;68.77;;
72466;Laerm;60471;52.150;4.508;2023-07-22T01:28:29;56.93;41.33;68.10;;
72466;Laerm;60471;52.150;4.508;2023-07-22T01:30:55;56.26;42.17;69.46;;
72466;Laerm;60471;52.150;4.508;2023-07-22T01:33:21;55.51;40.40;67.48;;
72466;Laerm;60471;52.150;4.508;2023-07-22T01:35:47;56.22;41.95;68.43;;
72466;Laerm;60471;52.150;4.508;2023-07-22T01:38:14;55.74;41.22;68.11;;
72466;Laerm;60471;52.150;4.508;2023-07-22T01:40:40;55.73;41.08;67.83;;
72466;Laerm;60471;52.150;4.508;2023-07-22T01:43:06;56.08;40.99;69.16;;
72466;Laerm;60471;52.150;4.508;2023-07-22T01:45:32;55.85;40.95;67.65;;
72466;Laerm;60471;52.150;4.508;2023-07-22T01:47:58;55.73;41.89;67.42;;
72466;Laerm;60471;52.150;4.508;2023-07-22T01:50:25;55.78;40.81;68.37;;
72466;Laerm;60471;52.150;4.508;2023-07-22T01:52:51;55.67;41.08;67.82;;
72466;Laerm;60471;52.150;4.508;2023-07-22T01:55:18;56.08;40.96;67.70;;
72466;Laerm;60471;52.150;4.508;2023-07-22T01:57:44;56.05;41.31;68.03;;
72466;Laerm;60471;52.150;4.508;2023-07-22T02:00:11;56.74;41.97;69.05;;
72466;Laerm;60471;52.150;4.508;2023-07-22T02:02:37;56.28;42.11;68.36;;
72466;Laerm;60471;52.150;4.508;2023-07-22T02:05:04;56.54;41.72;69.59;;
72466;Laerm;60471;52.150;4.508;2023-07-22T02:07:30;56.79;41.99;68.13;;
72466;Laerm;60471;52.150;4.508;2023-07-22T02:09:57;57.15;43.11;68.78;;
72466;Laerm;60471;52.150;4.508;2023-07-22T02:12:23;57.13;40.96;68.86;;
72466;Laerm;60471;52.150;4.508;2023-07-22T02:14:49;57.19;42.28;67.83;;
72466;Laerm;60471;52.150;4.508;2023-07-22T02:17:15;57.08;41.38;68.55;;
72466;Laerm;60471;52.150;4.508;2023-07-22T02:19:42;57.27;42.01;68.54;;
72466;Laerm;60471;52.150;4.508;2023-07-22T02:22:08;57.42;42.97;68.75;;
72466;Laerm;60471;52.150;4.508;2023-07-22T02:24:34;57.00;42.43;68.76;;
72466;Laerm;60471;52.150;4.508;2023-07-22T02:27:00;56.56;41.41;68.81;;
72466;Laerm;60471;52.150;4.508;2023-07-22T02:29:27;57.42;40.97;68.61;;
72466;Laerm;60471;52.150;4.508;2023-07-22T02:31:53;57.16;41.93;69.11;;
72466;Laerm;60471;52.150;4.508;2023-07-22T02:34:19;56.40;41.42;68.51;;
72466;Laerm;60471;52.150;4.508;2023-07-22T02:36:45;57.36;41.45;68.91;;
72466;Laerm;60471;52.150;4.508;2023-07-22T02:39:12;56.65;42.13;68.87;;
72466;Laerm;60471;52.150;4.508;2023-07-22T02:41:39;57.07;41.89;68.30;;
72466;Laerm;60471;52.150;4.508;2023-07-22T02:44:05;58.47;43.72;69.43;;
72466;Laerm;60471;52.150;4.508;2023-07-22T02:46:31;57.16;42.79;69.21;;
72466;Laerm;60471;52.150;4.508;2023-07-22T02:48:58;57.13;44.00;68.71;;
72466;Laerm;60471;52.150;4.508;2023-07-22T02:51:27;56.84;43.11;68.62;;
72466;Laerm;60471;52.150;4.508;2023-07-22T02:53:54;56.87;40.79;68.72;;
72466;Laerm;60471;52.150;4.508;2023-07-22T02:56:20;57.00;43.16;69.28;;
72466;Laerm;60471;52.150;4.508;2023-07-22T02:58:46;57.18;42.42;68.77;;
72466;Laerm;60471;52.150;4.508;2023-07-22T03:01:14;57.26;43.42;69.00;;
72466;Laerm;60471;52.150;4.508;2023-07-22T03:03:40;56.93;41.67;68.52;;
72466;Laerm;60471;52.150;4.508;2023-07-22T03:06:06;57.33;43.08;68.98;;
72466;Laerm;60471;52.150;4.508;2023-07-22T03:08:33;56.55;42.79;68.52;;
72466;Laerm;60471;52.150;4.508;2023-07-22T03:11:01;56.93;43.82;68.29;;
72466;Laerm;60471;52.150;4.508;2023-07-22T03:13:27;56.97;42.40;68.74;;
72466;Laerm;60471;52.150;4.508;2023-07-22T03:15:57;57.19;43.00;68.98;;
72466;Laerm;60471;52.150;4.508;2023-07-22T03:18:24;57.31;44.89;68.87;;
72466;Laerm;60471;52.150;4.508;2023-07-22T03:20:50;57.37;43.77;69.05;;
72466;Laerm;60471;52.150;4.508;2023-07-22T03:23:17;57.86;43.96;69.14;;
72466;Laerm;60471;52.150;4.508;2023-07-22T03:25:43;57.32;43.93;68.38;;
72466;Laerm;60471;52.150;4.508;2023-07-22T03:28:10;57.29;42.98;68.73;;
72466;Laerm;60471;52.150;4.508;2023-07-22T03:30:36;57.32;44.06;68.65;;
72466;Laerm;60471;52.150;4.508;2023-07-22T03:33:02;57.32;44.30;70.12;;
72466;Laerm;60471;52.150;4.508;2023-07-22T03:35:29;57.34;42.98;69.26;;
72466;Laerm;60471;52.150;4.508;2023-07-22T03:37:55;57.40;43.80;69.44;;
72466;Laerm;60471;52.150;4.508;2023-07-22T03:40:21;58.00;43.95;74.07;;
72466;Laerm;60471;52.150;4.508;2023-07-22T03:42:57;57.12;43.12;69.53;;
72466;Laerm;60471;52.150;4.508;2023-07-22T03:45:24;57.80;43.26;69.62;;
72466;Laerm;60471;52.150;4.508;2023-07-22T03:47:53;57.59;43.30;69.63;;
72466;Laerm;60471;52.150;4.508;2023-07-22T03:50:20;57.22;42.16;69.57;;
72466;Laerm;60471;52.150;4.508;2023-07-22T03:52:46;58.02;44.10;69.35;;
72466;Laerm;60471;52.150;4.508;2023-07-22T03:55:12;57.37;42.82;69.17;;
72466;Laerm;60471;52.150;4.508;2023-07-22T03:57:38;57.32;42.89;70.10;;
72466;Laerm;60471;52.150;4.508;2023-07-22T04:00:06;57.60;42.89;70.17;;
72466;Laerm;60471;52.150;4.508;2023-07-22T04:02:35;58.21;43.08;69.92;;
72466;Laerm;60471;52.150;4.508;2023-07-22T04:05:01;57.74;44.35;69.82;;
72466;Laerm;60471;52.150;4.508;2023-07-22T04:07:27;57.81;44.63;69.59;;
72466;Laerm;60471;52.150;4.508;2023-07-22T04:09:53;57.14;43.84;68.69;;
72466;Laerm;60471;52.150;4.508;2023-07-22T04:12:20;57.55;44.29;69.45;;
72466;Laerm;60471;52.150;4.508;2023-07-22T04:14:46;57.45;44.41;68.99;;
72466;Laerm;60471;52.150;4.508;2023-07-22T04:17:12;57.42;44.70;68.51;;
72466;Laerm;60471;52.150;4.508;2023-07-22T04:19:41;57.98;44.48;69.42;;
72466;Laerm;60471;52.150;4.508;2023-07-22T04:22:10;57.61;45.72;70.01;;
72466;Laerm;60471;52.150;4.508;2023-07-22T04:24:36;57.81;45.98;69.51;;
72466;Laerm;60471;52.150;4.508;2023-07-22T04:27:03;57.75;45.97;69.12;;
72466;Laerm;60471;52.150;4.508;2023-07-22T04:29:30;58.37;49.16;69.36;;
72466;Laerm;60471;52.150;4.508;2023-07-22T04:32:01;57.82;47.14;69.18;;
72466;Laerm;60471;52.150;4.508;2023-07-22T04:34:31;57.90;46.64;68.50;;
72466;Laerm;60471;52.150;4.508;2023-07-22T04:36:57;58.70;46.53;69.43;;
72466;Laerm;60471;52.150;4.508;2023-07-22T04:39:24;58.04;46.84;68.91;;
72466;Laerm;60471;52.150;4.508;2023-07-22T04:41:51;57.47;46.28;68.80;;
72466;Laerm;60471;52.150;4.508;2023-07-22T04:44:19;58.02;47.79;69.06;;
72466;Laerm;60471;52.150;4.508;2023-07-22T04:46:45;57.80;47.24;69.05;;
72466;Laerm;60471;52.150;4.508;2023-07-22T04:49:14;57.71;46.63;68.90;;
72466;Laerm;60471;52.150;4.508;2023-07-22T04:51:46;58.01;47.58;68.96;;
72466;Laerm;60471;52.150;4.508;2023-07-22T04:54:14;57.70;48.70;68.29;;
72466;Laerm;60471;52.150;4.508;2023-07-22T04:56:42;58.44;46.72;68.98;;
72466;Laerm;60471;52.150;4.508;2023-07-22T04:59:08;58.06;47.05;69.07;;
72466;Laerm;60471;52.150;4.508;2023-07-22T05:01:35;58.58;48.02;68.82;;
72466;Laerm;60471;52.150;4.508;2023-07-22T05:04:01;58.40;47.85;69.44;;
72466;Laerm;60471;52.150;4.508;2023-07-22T05:06:28;58.04;47.50;68.46;;
72466;Laerm;60471;52.150;4.508;2023-07-22T05:08:55;57.66;47.22;69.00;;
72466;Laerm;60471;52.150;4.508;2023-07-22T05:11:21;57.35;46.45;69.39;;
72466;Laerm;60471;52.150;4.508;2023-07-22T05:13:49;57.80;46.41;68.88;;
72466;Laerm;60471;52.150;4.508;2023-07-22T05:16:15;58.48;47.89;68.17;;
72466;Laerm;60471;52.150;4.508;2023-07-22T05:18:41;57.17;47.57;68.34;;
72466;Laerm;60471;52.150;4.508;2023-07-22T05:21:08;58.61;47.53;69.10;;
72466;Laerm;60471;52.150;4.508;2023-07-22T05:23:34;57.76;48.49;67.76;;
72466;Laerm;60471;52.150;4.508;2023-07-22T05:26:00;57.88;47.99;68.46;;
72466;Laerm;60471;52.150;4.508;2023-07-22T05:28:26;58.06;48.76;67.94;;
72466;Laerm;60471;52.150;4.508;2023-07-22T05:30:55;57.54;47.82;67.49;;
72466;Laerm;60471;52.150;4.508;2023-07-22T05:33:22;57.01;47.17;67.58;;
72466;Laerm;60471;52.150;4.508;2023-07-22T05:35:48;57.36;48.29;67.62;;
72466;Laerm;60471;52.150;4.508;2023-07-22T05:38:14;56.75;47.57;67.83;;
72466;Laerm;60471;52.150;4.508;2023-07-22T05:40:40;56.99;47.13;67.14;;
72466;Laerm;60471;52.150;4.508;2023-07-22T05:43:07;58.42;48.53;67.53;;
72466;Laerm;60471;52.150;4.508;2023-07-22T05:45:33;57.56;47.79;68.43;;
72466;Laerm;60471;52.150;4.508;2023-07-22T05:47:59;56.77;47.00;68.33;;
72466;Laerm;60471;52.150;4.508;2023-07-22T05:50:25;57.27;46.92;67.89;;
72466;Laerm;60471;52.150;4.508;2023-07-22T05:52:52;56.77;46.60;66.98;;
72466;Laerm;60471;52.150;4.508;2023-07-22T05:55:18;56.40;46.68;67.18;;
72466;Laerm;60471;52.150;4.508;2023-07-22T05:57:44;57.39;46.22;68.38;;
72466;Laerm;60471;52.150;4.508;2023-07-22T06:00:13;56.47;45.76;65.84;;
72466;Laerm;60471;52.150;4.508;2023-07-22T06:02:40;57.05;46.97;66.14;;
72466;Laerm;60471;52.150;4.508;2023-07-22T06:05:07;56.46;46.46;65.93;;
72466;Laerm;60471;52.150;4.508;2023-07-22T06:07:33;57.37;47.20;67.47;;
72466;Laerm;60471;52.150;4.508;2023-07-22T06:10:00;55.97;46.33;66.17;;
72466;Laerm;60471;52.150;4.508;2023-07-22T06:12:26;57.08;46.83;68.00;;
72466;Laerm;60471;52.150;4.508;2023-07-22T06:14:52;56.85;45.19;65.49;;
72466;Laerm;60471;52.150;4.508;2023-07-22T06:17:18;57.25;46.47;66.27;;
72466;Laerm;60471;52.150;4.508;2023-07-22T06:19:46;56.54;47.16;65.17;;
72466;Laerm;60471;52.150;4.508;2023-07-22T06:22:12;56.07;46.98;65.17;;
72466;Laerm;60471;52.150;4.508;2023-07-22T06:24:39;55.67;47.22;65.02;;
72466;Laerm;60471;52.150;4.508;2023-07-22T06:27:05;55.29;46.53;64.53;;
72466;Laerm;60471;52.150;4.508;2023-07-22T06:29:31;57.19;47.26;66.96;;
72466;Laerm;60471;52.150;4.508;2023-07-22T06:31:58;56.14;46.56;66.02;;
72466;Laerm;60471;52.150;4.508;2023-07-22T06:34:24;56.59;47.61;66.48;;
72466;Laerm;60471;52.150;4.508;2023-07-22T06:36:50;57.22;47.23;66.75;;
72466;Laerm;60471;52.150;4.508;2023-07-22T06:39:16;56.70;46.42;65.10;;
72466;Laerm;60471;52.150;4.508;2023-07-22T06:41:42;56.90;47.22;65.53;;
72466;Laerm;60471;52.150;4.508;2023-07-22T06:44:09;57.46;47.47;70.12;;
72466;Laerm;60471;52.150;4.508;2023-07-22T06:46:35;56.99;48.24;65.78;;
72466;Laerm;60471;52.150;4.508;2023-07-22T06:49:01;57.15;46.73;66.58;;
72466;Laerm;60471;52.150;4.508;2023-07-22T06:51:27;56.14;47.39;65.57;;
72466;Laerm;60471;52.150;4.508;2023-07-22T06:53:53;55.78;47.44;65.05;;
72466;Laerm;60471;52.150;4.508;2023-07-22T06:56:20;57.56;47.97;66.00;;
72466;Laerm;60471;52.150;4.508;2023-07-22T06:58:46;56.87;47.89;65.87;;
72466;Laerm;60471;52.150;4.508;2023-07-22T07:01:13;56.83;47.96;66.30;;
72466;Laerm;60471;52.150;4.508;2023-07-22T07:03:39;57.44;47.68;68.87;;
72466;Laerm;60471;52.150;4.508;2023-07-22T07:06:05;56.48;48.05;66.40;;
72466;Laerm;60471;52.150;4.508;2023-07-22T07:08:32;56.92;48.15;65.07;;
72466;Laerm;60471;52.150;4.508;2023-07-22T07:10:59;56.49;46.55;66.32;;
72466;Laerm;60471;52.150;4.508;2023-07-22T07:13:27;56.11;47.97;65.27;;
72466;Laerm;60471;52.150;4.508;2023-07-22T07:15:54;56.83;48.39;65.23;;
72466;Laerm;60471;52.150;4.508;2023-07-22T07:18:21;56.91;47.56;65.61;;
72466;Laerm;60471;52.150;4.508;2023-07-22T07:20:47;57.70;49.64;66.18;;
72466;Laerm;60471;52.150;4.508;2023-07-22T07:23:13;58.56;48.95;69.55;;
72466;Laerm;60471;52.150;4.508;2023-07-22T07:25:42;57.31;49.73;66.54;;
72466;Laerm;60471;52.150;4.508;2023-07-22T07:28:08;56.69;49.06;66.99;;
72466;Laerm;60471;52.150;4.508;2023-07-22T07:30:34;57.48;48.93;74.82;;
72466;Laerm;60471;52.150;4.508;2023-07-22T07:33:01;56.59;48.93;65.05;;
72466;Laerm;60471;52.150;4.508;2023-07-22T07:35:27;57.81;49.48;68.57;;
72466;Laerm;60471;52.150;4.508;2023-07-22T07:37:53;59.08;51.88;67.84;;
72466;Laerm;60471;52.150;4.508;2023-07-22T07:40:19;58.10;49.91;67.99;;
72466;Laerm;60471;52.150;4.508;2023-07-22T07:42:45;58.10;50.90;67.75;;
72466;Laerm;60471;52.150;4.508;2023-07-22T07:45:15;58.58;49.18;67.19;;
72466;Laerm;60471;52.150;4.508;2023-07-22T07:47:42;58.74;49.77;66.64;;
72466;Laerm;60471;52.150;4.508;2023-07-22T07:50:08;57.23;48.51;65.71;;
72466;Laerm;60471;52.150;4.508;2023-07-22T07:52:35;57.57;49.88;65.53;;
72466;Laerm;60471;52.150;4.508;2023-07-22T07:55:01;58.27;47.56;68.14;;
72466;Laerm;60471;52.150;4.508;2023-07-22T07:57:28;57.62;49.73;73.94;;
72466;Laerm;60471;52.150;4.508;2023-07-22T07:59:54;57.20;49.62;67.95;;
72466;Laerm;60471;52.150;4.508;2023-07-22T08:02:20;57.08;47.37;64.94;;
72466;Laerm;60471;52.150;4.508;2023-07-22T08:04:46;58.10;49.90;66.96;;
72466;Laerm;60471;52.150;4.508;2023-07-22T08:07:16;56.25;47.49;67.07;;
72466;Laerm;60471;52.150;4.508;2023-07-22T08:09:42;58.08;51.18;70.07;;
72466;Laerm;60471;52.150;4.508;2023-07-22T08:12:08;57.11;50.17;67.02;;
72466;Laerm;60471;52.150;4.508;2023-07-22T08:14:34;59.00;50.32;73.30;;
72466;Laerm;60471;52.150;4.508;2023-07-22T08:17:01;58.98;51.50;68.59;;
72466;Laerm;60471;52.150;4.508;2023-07-22T08:19:28;58.34;51.28;71.31;;
72466;Laerm;60471;52.150;4.508;2023-07-22T08:21:54;59.19;53.20;74.17;;
72466;Laerm;60471;52.150;4.508;2023-07-22T08:24:20;63.62;51.02;82.87;;
72466;Laerm;60471;52.150;4.508;2023-07-22T08:26:47;59.63;54.03;67.11;;
72466;Laerm;60471;52.150;4.508;2023-07-22T08:29:13;60.15;52.43;74.19;;
72466;Laerm;60471;52.150;4.508;2023-07-22T08:31:41;59.85;51.97;71.29;;
72466;Laerm;60471;52.150;4.508;2023-07-22T08:34:08;59.22;51.00;68.42;;
72466;Laerm;60471;52.150;4.508;2023-07-22T08:36:35;59.19;49.74;68.80;;
72466;Laerm;60471;52.150;4.508;2023-07-22T08:39:02;59.08;50.93;69.85;;
72466;Laerm;60471;52.150;4.508;2023-07-22T08:41:30;60.08;51.60;69.40;;
72466;Laerm;60471;52.150;4.508;2023-07-22T08:43:59;59.75;50.46;68.73;;
72466;Laerm;60471;52.150;4.508;2023-07-22T08:46:29;60.15;51.65;68.51;;
72466;Laerm;60471;52.150;4.508;2023-07-22T08:49:00;59.76;50.91;70.26;;
72466;Laerm;60471;52.150;4.508;2023-07-22T08:51:27;59.76;52.18;68.14;;
72466;Laerm;60471;52.150;4.508;2023-07-22T08:53:59;59.85;51.50;69.01;;
72466;Laerm;60471;52.150;4.508;2023-07-22T08:56:27;59.73;51.42;69.31;;
72466;Laerm;60471;52.150;4.508;2023-07-22T08:58:56;60.83;51.68;69.73;;
72466;Laerm;60471;52.150;4.508;2023-07-22T09:01:23;61.14;53.91;69.57;;
72466;Laerm;60471;52.150;4.508;2023-07-22T09:03:50;59.78;51.26;68.95;;
72466;Laerm;60471;52.150;4.508;2023-07-22T09:06:19;60.14;51.77;69.31;;
72466;Laerm;60471;52.150;4.508;2023-07-22T09:08:46;59.24;49.79;69.26;;
72466;Laerm;60471;52.150;4.508;2023-07-22T09:11:13;59.83;52.44;67.94;;
72466;Laerm;60471;52.150;4.508;2023-07-22T09:13:41;60.20;52.78;69.19;;
72466;Laerm;60471;52.150;4.508;2023-07-22T09:16:12;59.37;51.61;66.77;;
72466;Laerm;60471;52.150;4.508;2023-07-22T09:18:39;60.16;51.12;67.92;;
72466;Laerm;60471;52.150;4.508;2023-07-22T09:21:05;59.60;51.16;69.21;;
72466;Laerm;60471;52.150;4.508;2023-07-22T09:23:38;57.94;51.14;66.64;;
72466;Laerm;60471;52.150;4.508;2023-07-22T09:26:11;58.39;50.72;67.84;;
72466;Laerm;60471;52.150;4.508;2023-07-22T09:28:49;59.88;50.36;71.34;;
72466;Laerm;60471;52.150;4.508;2023-07-22T09:31:16;58.74;50.64;68.24;;
72466;Laerm;60471;52.150;4.508;2023-07-22T09:33:42;60.51;52.09;68.69;;
72466;Laerm;60471;52.150;4.508;2023-07-22T09:36:10;59.22;50.83;66.89;;
72466;Laerm;60471;52.150;4.508;2023-07-22T09:38:39;59.21;51.00;71.49;;
72466;Laerm;60471;52.150;4.508;2023-07-22T09:41:06;59.36;51.38;68.10;;
72466;Laerm;60471;52.150;4.508;2023-07-22T09:43:37;59.39;51.55;70.57;;
72466;Laerm;60471;52.150;4.508;2023-07-22T09:46:10;59.22;51.65;67.70;;
72466;Laerm;60471;52.150;4.508;2023-07-22T09:48:44;60.12;52.66;68.36;;
72466;Laerm;60471;52.150;4.508;2023-07-22T09:51:15;58.60;49.84;67.63;;
72466;Laerm;60471;52.150;4.508;2023-07-22T09:53:47;59.37;50.65;67.33;;
72466;Laerm;60471;52.150;4.508;2023-07-22T09:56:13;59.12;52.00;68.99;;
72466;Laerm;60471;52.150;4.508;2023-07-22T09:58:40;60.20;53.41;68.27;;
72466;Laerm;60471;52.150;4.508;2023-07-22T10:01:08;60.59;54.04;69.48;;
72466;Laerm;60471;52.150;4.508;2023-07-22T10:03:40;60.82;54.31;68.02;;
72466;Laerm;60471;52.150;4.508;2023-07-22T10:06:10;59.80;52.67;73.82;;
72466;Laerm;60471;52.150;4.508;2023-07-22T10:08:37;59.79;53.01;68.34;;
72466;Laerm;60471;52.150;4.508;2023-07-22T10:11:08;60.39;53.13;69.21;;
72466;Laerm;60471;52.150;4.508;2023-07-22T10:13:37;60.69;53.32;67.80;;
72466;Laerm;60471;52.150;4.508;2023-07-22T10:16:05;59.53;51.05;68.31;;
72466;Laerm;60471;52.150;4.508;2023-07-22T10:18:32;59.54;52.30;68.11;;
72466;Laerm;60471;52.150;4.508;2023-07-22T10:21:00;59.92;52.20;68.46;;
72466;Laerm;60471;52.150;4.508;2023-07-22T10:23:27;60.15;52.35;68.48;;
72466;Laerm;60471;52.150;4.508;2023-07-22T10:25:53;59.37;51.96;68.05;;
72466;Laerm;60471;52.150;4.508;2023-07-22T10:28:23;60.30;53.34;70.05;;
72466;Laerm;60471;52.150;4.508;2023-07-22T10:30:52;60.43;53.25;68.16;;
72466;Laerm;60471;52.150;4.508;2023-07-22T10:33:19;60.17;52.77;67.34;;
72466;Laerm;60471;52.150;4.508;2023-07-22T10:36:08;59.45;52.10;66.32;;
72466;Laerm;60471;52.150;4.508;2023-07-22T10:38:35;59.71;52.17;67.65;;
72466;Laerm;60471;52.150;4.508;2023-07-22T10:41:13;59.05;51.99;68.85;;
72466;Laerm;60471;52.150;4.508;2023-07-22T10:43:40;59.19;51.23;67.14;;
72466;Laerm;60471;52.150;4.508;2023-07-22T10:46:12;58.66;51.18;67.43;;
72466;Laerm;60471;52.150;4.508;2023-07-22T10:48:40;58.07;52.08;69.21;;
72466;Laerm;60471;52.150;4.508;2023-07-22T10:51:10;58.41;51.10;66.31;;
72466;Laerm;60471;52.150;4.508;2023-07-22T10:54:10;59.07;51.85;68.77;;
72466;Laerm;60471;52.150;4.508;2023-07-22T10:56:37;58.03;50.02;66.29;;
72466;Laerm;60471;52.150;4.508;2023-07-22T10:59:03;58.26;51.17;68.51;;
72466;Laerm;60471;52.150;4.508;2023-07-22T11:01:35;59.06;51.33;71.27;;
72466;Laerm;60471;52.150;4.508;2023-07-22T11:09:41;59.60;51.02;71.92;;
72466;Laerm;60471;52.150;4.508;2023-07-22T11:12:16;58.07;49.95;68.10;;
72466;Laerm;60471;52.150;4.508;2023-07-22T11:14:51;58.11;51.97;67.65;;
72466;Laerm;60471;52.150;4.508;2023-07-22T11:17:28;58.33;51.24;76.00;;
72466;Laerm;60471;52.150;4.508;2023-07-22T11:20:00;57.90;49.89;67.79;;
72466;Laerm;60471;52.150;4.508;2023-07-22T11:22:27;60.16;53.34;70.89;;
72466;Laerm;60471;52.150;4.508;2023-07-22T11:24:56;58.75;52.60;70.75;;
72466;Laerm;60471;52.150;4.508;2023-07-22T11:27:24;58.82;52.40;73.84;;
72466;Laerm;60471;52.150;4.508;2023-07-22T11:29:50;57.86;51.04;66.32;;
72466;Laerm;60471;52.150;4.508;2023-07-22T11:32:19;58.42;51.60;76.80;;
72466;Laerm;60471;52.150;4.508;2023-07-22T11:34:48;60.69;54.15;75.65;;
72466;Laerm;60471;52.150;4.508;2023-07-22T11:37:14;60.95;53.01;78.16;;
72466;Laerm;60471;52.150;4.508;2023-07-22T11:39:41;58.48;52.67;66.08;;
72466;Laerm;60471;52.150;4.508;2023-07-22T11:42:08;59.88;53.27;75.89;;
72466;Laerm;60471;52.150;4.508;2023-07-22T11:44:34;59.08;51.77;68.08;;
72466;Laerm;60471;52.150;4.508;2023-07-22T11:47:07;58.32;51.40;69.56;;
72466;Laerm;60471;52.150;4.508;2023-07-22T11:49:40;58.33;52.35;78.77;;
72466;Laerm;60471;52.150;4.508;2023-07-22T11:52:09;57.48;50.96;68.06;;
72466;Laerm;60471;52.150;4.508;2023-07-22T11:54:40;59.42;51.10;69.13;;
72466;Laerm;60471;52.150;4.508;2023-07-22T11:59:46;57.72;50.57;65.29;;
72466;Laerm;60471;52.150;4.508;2023-07-22T12:02:17;57.56;49.26;65.09;;
72466;Laerm;60471;52.150;4.508;2023-07-22T12:05:00;58.71;51.72;75.65;;
72466;Laerm;60471;52.150;4.508;2023-07-22T12:07:33;60.70;52.56;81.47;;
72466;Laerm;60471;52.150;4.508;2023-07-22T12:10:03;59.17;53.34;69.05;;
72466;Laerm;60471;52.150;4.508;2023-07-22T12:12:43;59.09;51.76;70.20;;
72466;Laerm;60471;52.150;4.508;2023-07-22T12:15:17;58.84;52.72;71.82;;
72466;Laerm;60471;52.150;4.508;2023-07-22T12:17:59;60.36;53.10;76.25;;
72466;Laerm;60471;52.150;4.508;2023-07-22T12:20:34;60.82;53.40;80.23;;
72466;Laerm;60471;52.150;4.508;2023-07-22T12:23:02;59.96;51.35;78.70;;
72466;Laerm;60471;52.150;4.508;2023-07-22T12:25:28;58.79;51.50;70.61;;
72466;Laerm;60471;52.150;4.508;2023-07-22T12:27:55;63.31;52.54;87.14;;
72466;Laerm;60471;52.150;4.508;2023-07-22T12:30:21;59.53;51.70;66.76;;
72466;Laerm;60471;52.150;4.508;2023-07-22T12:32:49;58.30;51.35;75.03;;
72466;Laerm;60471;52.150;4.508;2023-07-22T12:35:16;58.94;52.03;76.63;;
72466;Laerm;60471;52.150;4.508;2023-07-22T12:37:42;60.18;53.21;69.81;;
72466;Laerm;60471;52.150;4.508;2023-07-22T12:40:09;59.92;52.36;76.10;;
72466;Laerm;60471;52.150;4.508;2023-07-22T12:42:38;60.34;52.94;83.74;;
72466;Laerm;60471;52.150;4.508;2023-07-22T12:45:05;57.84;50.92;71.37;;
72466;Laerm;60471;52.150;4.508;2023-07-22T12:47:31;58.44;49.67;75.07;;
72466;Laerm;60471;52.150;4.508;2023-07-22T12:49:58;58.41;50.65;71.30;;
72466;Laerm;60471;52.150;4.508;2023-07-22T12:52:25;59.74;52.43;72.01;;
72466;Laerm;60471;52.150;4.508;2023-07-22T12:54:51;58.54;51.68;69.80;;
72466;Laerm;60471;52.150;4.508;2023-07-22T12:57:17;58.17;49.43;75.80;;
72466;Laerm;60471;52.150;4.508;2023-07-22T12:59:43;58.54;50.95;75.79;;
72466;Laerm;60471;52.150;4.508;2023-07-22T13:02:09;59.46;52.62;68.20;;
72466;Laerm;60471;52.150;4.508;2023-07-22T13:04:36;57.29;50.98;64.48;;
72466;Laerm;60471;52.150;4.508;2023-07-22T13:07:03;57.60;50.44;65.50;;
72466;Laerm;60471;52.150;4.508;2023-07-22T13:09:29;58.66;51.78;78.15;;
72466;Laerm;60471;52.150;4.508;2023-07-22T13:11:55;58.12;50.17;67.10;;
72466;Laerm;60471;52.150;4.508;2023-07-22T13:14:22;59.54;52.30;72.62;;
72466;Laerm;60471;52.150;4.508;2023-07-22T13:16:48;59.25;50.08;72.06;;
72466;Laerm;60471;52.150;4.508;2023-07-22T13:19:14;59.28;52.09;74.06;;
72466;Laerm;60471;52.150;4.508;2023-07-22T13:21:41;59.39;51.73;67.89;;
72466;Laerm;60471;52.150;4.508;2023-07-22T13:24:07;58.75;49.83;70.67;;
72466;Laerm;60471;52.150;4.508;2023-07-22T13:26:34;58.50;51.48;78.82;;
72466;Laerm;60471;52.150;4.508;2023-07-22T13:29:01;57.39;51.65;66.45;;
72466;Laerm;60471;52.150;4.508;2023-07-22T13:31:28;58.70;51.37;71.36;;
72466;Laerm;60471;52.150;4.508;2023-07-22T13:33:55;58.12;50.51;65.71;;
72466;Laerm;60471;52.150;4.508;2023-07-22T13:36:27;58.46;52.05;64.95;;
72466;Laerm;60471;52.150;4.508;2023-07-22T13:38:55;57.29;49.15;64.64;;
72466;Laerm;60471;52.150;4.508;2023-07-22T13:41:24;57.45;49.02;70.50;;
72466;Laerm;60471;52.150;4.508;2023-07-22T13:43:53;57.98;50.61;72.03;;
72466;Laerm;60471;52.150;4.508;2023-07-22T13:46:22;58.71;52.29;82.78;;
72466;Laerm;60471;52.150;4.508;2023-07-22T13:48:48;57.97;51.21;77.96;;
72466;Laerm;60471;52.150;4.508;2023-07-22T13:51:14;57.54;49.38;65.29;;
72466;Laerm;60471;52.150;4.508;2023-07-22T13:53:41;58.15;51.35;74.16;;